Time;durP1;ratioP1;P1;durP2;ratioP2;P2;SDS_P1;SDS_P2;PMS_P1;PMS_P2;Temp;Humidity;BMP_temperature;BMP_pressure;BME280_temperature;BME280_humidity;BME280_pressure;Samples;Min_cycle;Max_cycle;Signal;HPM_P1;HPM_P2
2022/05/07 00:01:19;;;;;;;45.67;26.05;;;11.70;20.30;;;;;;5035374;28;20100;-79
2022/05/07 00:03:46;;;;;;;45.45;25.63;;;11.70;36.30;;;;;;5035244;28;20029;-79
2022/05/07 00:06:11;;;;;;;43.22;25.65;;;11.80;99.90;;;;;;5016995;28;20112;-79
2022/05/07 00:08:37;;;;;;;43.75;25.60;;;11.70;27.40;;;;;;5034504;28;20175;-79
2022/05/07 00:11:02;;;;;;;43.70;24.98;;;11.80;81.30;;;;;;5034625;28;20021;-79
2022/05/07 00:13:28;;;;;;;44.00;25.30;;;11.80;76.60;;;;;;5034769;28;20021;-79
2022/05/07 00:18:38;;;;;;;48.35;26.77;;;11.80;99.90;;;;;;5034448;28;20067;-79
2022/05/07 00:21:03;;;;;;;40.60;24.63;;;11.80;99.90;;;;;;5034779;28;20018;-78
2022/05/07 00:23:30;;;;;;;44.05;25.27;;;11.80;63.50;;;;;;5035322;28;20025;-78
2022/05/07 00:25:56;;;;;;;41.95;25.60;;;11.80;99.90;;;;;;5034650;28;20092;-80
2022/05/07 00:28:22;;;;;;;40.03;24.30;;;11.80;54.60;;;;;;5034113;28;20049;-79
2022/05/07 00:30:47;;;;;;;46.20;25.52;;;11.80;49.20;;;;;;5034397;28;20028;-80
2022/05/07 00:33:13;;;;;;;42.88;26.40;;;11.80;1.80;;;;;;5034121;28;20538;-79
2022/05/07 00:35:39;;;;;;;43.70;26.27;;;11.80;1.00;;;;;;5033947;28;20037;-79
2022/05/07 00:38:04;;;;;;;44.40;25.17;;;11.70;1.00;;;;;;5034093;28;20048;-79
2022/05/07 00:40:30;;;;;;;48.08;26.48;;;11.70;1.00;;;;;;5034083;28;20075;-79
2022/05/07 00:42:56;;;;;;;44.15;25.30;;;11.70;1.00;;;;;;5016128;28;20083;-79
2022/05/07 00:45:21;;;;;;;47.30;26.00;;;11.60;5.10;;;;;;5033778;28;20667;-80
2022/05/07 00:47:47;;;;;;;35.95;22.15;;;11.60;10.90;;;;;;5034012;28;20022;-80
2022/05/07 00:52:57;;;;;;;39.83;24.17;;;11.50;67.20;;;;;;5033890;28;20037;-80
2022/05/07 00:55:25;;;;;;;46.13;24.13;;;11.50;99.90;;;;;;5033805;28;20377;-80
2022/05/07 00:57:51;;;;;;;41.47;24.10;;;11.50;99.90;;;;;;5033651;28;20786;-79
2022/05/07 01:03:56;;;;;;;46.20;26.67;;;11.30;99.90;;;;;;5033516;28;20084;-78
2022/05/07 01:06:22;;;;;;;43.00;25.45;;;11.30;99.90;;;;;;5033440;28;20026;-79
2022/05/07 01:08:49;;;;;;;45.30;27.25;;;11.20;99.90;;;;;;5033779;28;20056;-79
2022/05/07 01:11:16;;;;;;;45.28;26.70;;;11.30;99.90;;;;;;5033713;28;20380;-79
2022/05/07 01:13:44;;;;;;;43.13;25.50;;;11.30;99.90;;;;;;5067822;22;20422;-84
2022/05/07 01:16:11;;;;;;;47.47;26.58;;;11.30;99.90;;;;;;5110643;28;20024;-83
2022/05/07 01:18:37;;;;;;;43.13;26.10;;;11.30;99.90;;;;;;5093998;28;20459;-83
2022/05/07 01:21:13;;;;;;;43.45;25.50;;;11.30;99.90;;;;;;5076307;28;20032;-82
2022/05/07 01:23:41;;;;;;;39.05;23.30;;;11.30;99.90;;;;;;5074032;28;20021;-82
2022/05/07 01:26:07;;;;;;;45.05;24.42;;;11.20;99.90;;;;;;5073643;28;20035;-82
2022/05/07 01:28:33;;;;;;;36.97;22.67;;;11.20;99.90;;;;;;5055113;28;20044;-82
2022/05/07 01:30:58;;;;;;;40.72;24.20;;;11.20;99.90;;;;;;5073455;28;20507;-83
2022/05/07 01:33:25;;;;;;;42.30;24.98;;;11.10;99.90;;;;;;5055221;28;20028;-83
2022/05/07 01:35:50;;;;;;;51.40;28.20;;;11.20;99.90;;;;;;5073139;28;20059;-82
2022/05/07 01:38:16;;;;;;;41.83;24.42;;;11.30;99.90;;;;;;5073016;28;20071;-83
2022/05/07 01:40:42;;;;;;;44.40;26.13;;;11.20;99.90;;;;;;5071767;28;20119;-83
2022/05/07 01:43:07;;;;;;;43.63;25.52;;;11.30;99.90;;;;;;5072953;28;20159;-83
2022/05/07 01:45:33;;;;;;;48.80;27.13;;;11.30;99.90;;;;;;5073246;28;20059;-83
2022/05/07 01:48:10;;;;;;;42.97;26.05;;;11.30;99.90;;;;;;5073060;28;20477;-83
2022/05/07 01:50:43;;;;;;;48.35;26.80;;;11.20;99.90;;;;;;5071680;28;20067;-83
2022/05/07 01:53:11;;;;;;;40.40;25.23;;;11.20;99.90;;;;;;5072959;28;20029;-82
2022/05/07 01:55:36;;;;;;;41.75;24.27;;;11.10;99.90;;;;;;5072851;28;20024;-82
2022/05/07 01:58:03;;;;;;;41.45;25.20;;;11.00;99.90;;;;;;5073050;28;20029;-83
2022/05/07 02:00:30;;;;;;;39.63;24.50;;;10.90;99.90;;;;;;5072874;28;20036;-82
2022/05/07 02:02:56;;;;;;;44.40;25.75;;;10.90;99.90;;;;;;5070894;28;20078;-82
2022/05/07 02:05:22;;;;;;;43.60;25.98;;;10.90;99.90;;;;;;5072662;28;20028;-83
2022/05/07 02:07:48;;;;;;;44.92;25.90;;;10.90;99.90;;;;;;5072699;28;20052;-83
2022/05/07 02:10:13;;;;;;;40.42;24.38;;;11.00;99.90;;;;;;5072696;28;20611;-83
2022/05/07 02:12:39;;;;;;;43.78;25.20;;;10.90;99.90;;;;;;5072666;28;20405;-84
2022/05/07 02:15:05;;;;;;;49.20;25.70;;;10.90;99.90;;;;;;5038026;28;20053;-83
2022/05/07 02:17:31;;;;;;;36.47;22.83;;;10.90;99.90;;;;;;5036207;28;20026;-83
2022/05/07 02:19:57;;;;;;;38.67;23.25;;;10.90;99.90;;;;;;5036404;28;20026;-83
2022/05/07 02:22:22;;;;;;;38.80;23.50;;;10.90;99.90;;;;;;5036401;28;20018;-83
2022/05/07 02:24:48;;;;;;;39.95;24.40;;;10.90;99.90;;;;;;5036324;28;20033;-83
2022/05/07 02:27:13;;;;;;;42.33;24.17;;;11.00;99.90;;;;;;5032043;28;20396;-84
2022/05/07 02:29:39;;;;;;;44.65;25.80;;;11.00;99.90;;;;;;5036113;28;20457;-84
2022/05/07 02:32:05;;;;;;;40.90;24.67;;;11.00;99.90;;;;;;5035920;28;20034;-84
2022/05/07 02:34:35;;;;;;;37.10;22.25;;;11.10;99.90;;;;;;5035986;28;20033;-84
2022/05/07 02:37:02;;;;;;;40.58;24.05;;;11.00;99.90;;;;;;5035658;28;20489;-84
2022/05/07 02:39:28;;;;;;;42.85;25.58;;;11.10;99.90;;;;;;5035580;28;20032;-84
2022/05/07 02:44:38;;;;;;;44.58;27.10;;;11.20;99.90;;;;;;5036085;28;20032;-83
2022/05/07 02:47:04;;;;;;;44.55;25.92;;;11.20;99.90;;;;;;5036150;28;20025;-83
2022/05/07 02:49:31;;;;;;;48.00;27.27;;;11.30;99.90;;;;;;5021148;28;20025;-82
2022/05/07 02:51:57;;;;;;;47.92;27.35;;;11.30;99.90;;;;;;5055608;28;20025;-82
2022/05/07 02:54:22;;;;;;;49.13;26.67;;;11.30;99.90;;;;;;5055476;28;20560;-82
2022/05/07 02:56:48;;;;;;;55.20;29.23;;;11.30;99.90;;;;;;5055003;28;20033;-82
2022/05/07 03:01:48;;;;;;;46.88;26.20;;;11.30;99.90;;;;;;1115864;22;21529;31
2022/05/07 03:04:21;;;;;;;50.53;28.33;;;11.30;99.90;;;;;;5055355;28;20048;-78
2022/05/07 03:06:53;;;;;;;44.63;26.45;;;11.50;99.90;;;;;;5057304;28;20028;-77
2022/05/07 03:09:18;;;;;;;44.85;25.95;;;11.50;99.90;;;;;;5058003;28;20029;-77
2022/05/07 03:11:44;;;;;;;47.90;27.25;;;11.40;99.90;;;;;;5058230;28;20047;-77
2022/05/07 03:14:09;;;;;;;45.17;25.77;;;11.30;99.90;;;;;;5058272;28;20025;-78
2022/05/07 03:16:35;;;;;;;40.45;23.35;;;11.30;99.90;;;;;;5056823;28;20028;-78
2022/05/07 03:19:02;;;;;;;39.42;22.73;;;11.40;99.90;;;;;;5056723;28;20013;-78
2022/05/07 03:21:28;;;;;;;40.72;25.15;;;11.50;99.90;;;;;;5057774;28;20021;-78
2022/05/07 03:23:53;;;;;;;42.28;24.25;;;11.50;99.90;;;;;;5058263;28;20030;-78
2022/05/07 03:26:21;;;;;;;42.67;25.83;;;11.60;99.90;;;;;;5056722;28;20013;-79
2022/05/07 03:28:47;;;;;;;45.78;25.98;;;11.60;99.90;;;;;;5057438;28;20017;-78
2022/05/07 03:31:13;;;;;;;43.90;27.33;;;11.60;99.90;;;;;;5057739;28;20040;-79
2022/05/07 03:33:39;;;;;;;46.20;27.33;;;11.60;99.90;;;;;;5057259;28;20021;-79
2022/05/07 03:36:05;;;;;;;48.72;26.92;;;11.60;99.90;;;;;;5057018;28;20191;-79
2022/05/07 03:38:31;;;;;;;44.03;26.70;;;11.50;99.90;;;;;;5058243;28;20053;-79
2022/05/07 03:40:56;;;;;;;45.60;27.35;;;11.50;99.90;;;;;;5057921;28;20044;-79
2022/05/07 03:43:22;;;;;;;45.17;25.83;;;11.50;99.90;;;;;;5057515;28;20079;-79
2022/05/07 03:45:48;;;;;;;42.38;25.98;;;11.50;99.90;;;;;;5058014;28;20040;-79
2022/05/07 03:48:13;;;;;;;45.42;26.52;;;11.50;99.90;;;;;;5060294;28;20032;-79
2022/05/07 03:50:39;;;;;;;43.63;25.67;;;11.60;99.90;;;;;;5057044;28;20076;-79
2022/05/07 03:55:49;;;;;;;41.65;24.20;;;11.70;99.90;;;;;;5056489;28;20396;-79
2022/05/07 03:58:15;;;;;;;37.25;22.95;;;11.70;99.90;;;;;;5056970;28;20460;-79
2022/05/07 04:00:44;;;;;;;41.20;24.02;;;11.70;99.90;;;;;;5065945;28;20550;-79
2022/05/07 04:03:12;;;;;;;41.55;24.63;;;11.70;99.90;;;;;;5075570;28;20052;-79
2022/05/07 04:05:38;;;;;;;45.25;26.73;;;11.70;99.90;;;;;;5076636;28;20427;-79
2022/05/07 04:08:04;;;;;;;45.83;27.83;;;11.80;99.90;;;;;;5076626;28;20032;-80
2022/05/07 04:10:30;;;;;;;48.78;27.38;;;11.80;99.90;;;;;;5076474;28;20479;-79
2022/05/07 04:12:55;;;;;;;53.70;29.70;;;11.80;99.90;;;;;;5077489;28;20034;-80
2022/05/07 04:15:22;;;;;;;51.90;29.20;;;11.70;99.90;;;;;;5076779;28;20104;-79
2022/05/07 04:17:48;;;;;;;51.90;29.45;;;11.70;99.90;;;;;;5075457;28;20031;-79
2022/05/07 04:20:14;;;;;;;49.47;29.02;;;11.60;99.90;;;;;;5075600;28;20059;-80
2022/05/07 04:22:48;;;;;;;53.33;28.30;;;11.60;99.90;;;;;;5075419;28;20036;-79
2022/05/07 04:25:13;;;;;;;47.55;27.85;;;11.60;99.90;;;;;;5075070;28;20028;-80
2022/05/07 04:27:39;;;;;;;45.92;27.63;;;11.60;99.90;;;;;;5075598;28;20023;-80
2022/05/07 04:30:05;;;;;;;47.60;28.90;;;11.50;99.90;;;;;;5076106;28;20407;-80
2022/05/07 04:32:31;;;;;;;51.78;29.27;;;11.60;99.90;;;;;;5075175;28;20013;-80
2022/05/07 04:34:57;;;;;;;47.63;27.42;;;11.60;99.90;;;;;;5075204;28;20314;-79
2022/05/07 04:37:23;;;;;;;48.88;28.00;;;11.60;99.90;;;;;;5075624;28;20024;-79
2022/05/07 04:39:48;;;;;;;47.92;27.52;;;11.60;99.90;;;;;;5076353;28;20491;-80
2022/05/07 04:42:14;;;;;;;43.55;26.85;;;11.60;99.90;;;;;;5075958;28;20025;-80
2022/05/07 04:44:40;;;;;;;50.13;29.23;;;11.60;99.90;;;;;;5075747;28;20832;-80
2022/05/07 04:47:06;;;;;;;50.13;27.98;;;11.70;99.90;;;;;;5076157;28;20077;-79
2022/05/07 04:49:35;;;;;;;47.03;26.92;;;11.70;99.90;;;;;;5076289;28;20017;-79
2022/05/07 04:52:19;;;;;;;43.58;25.98;;;11.70;99.90;;;;;;5075375;28;20025;-79
2022/05/07 04:54:45;;;;;;;48.83;27.38;;;11.70;99.90;;;;;;5073839;28;20016;-79
2022/05/07 04:57:11;;;;;;;47.88;28.15;;;11.70;99.90;;;;;;5075158;28;20360;-80
2022/05/07 04:59:36;;;;;;;48.20;29.05;;;11.80;99.90;;;;;;5075422;28;20017;-80
2022/05/07 05:02:02;;;;;;;48.47;27.80;;;11.90;99.90;;;;;;5075145;28;20036;-80
2022/05/07 05:04:28;;;;;;;47.13;28.90;;;12.00;99.90;;;;;;5074811;28;20110;-80
2022/05/07 05:06:53;;;;;;;48.42;28.00;;;12.00;99.90;;;;;;5075047;28;20024;-79
2022/05/07 05:09:19;;;;;;;50.42;28.08;;;12.00;99.90;;;;;;5074090;28;20105;-80
2022/05/07 05:11:44;;;;;;;43.95;26.10;;;12.10;99.90;;;;;;5074718;28;20375;-80
2022/05/07 05:16:54;;;;;;;48.47;29.45;;;12.50;99.90;;;;;;5075593;28;20098;-79
2022/05/07 05:19:20;;;;;;;41.80;24.70;;;12.70;99.90;;;;;;5075069;28;20475;-79
2022/05/07 05:21:46;;;;;;;36.00;23.02;;;12.70;99.90;;;;;;5058356;28;20028;-79
2022/05/07 05:24:13;;;;;;;37.30;22.13;;;12.80;99.90;;;;;;5076023;28;20147;-80
2022/05/07 05:26:38;;;;;;;36.10;21.83;;;12.90;99.90;;;;;;5076948;28;20044;-80
2022/05/07 05:29:04;;;;;;;34.90;20.83;;;13.10;99.90;;;;;;5077076;28;20032;-80
2022/05/07 05:31:30;;;;;;;36.05;22.67;;;13.20;99.90;;;;;;5076934;28;20074;-79
2022/05/07 05:33:59;;;;;;;35.25;23.38;;;13.30;99.90;;;;;;5076291;28;20031;-79
2022/05/07 05:36:27;;;;;;;40.95;24.08;;;13.50;99.90;;;;;;5079049;28;20046;-78
2022/05/07 05:38:52;;;;;;;39.60;24.90;;;13.60;99.90;;;;;;5080709;28;20017;-79
2022/05/07 05:41:18;;;;;;;43.53;25.13;;;13.90;99.90;;;;;;5079187;28;20020;-79
2022/05/07 05:43:45;;;;;;;42.67;26.17;;;14.00;85.10;;;;;;5078020;28;20037;-79
2022/05/07 05:46:10;;;;;;;46.67;28.40;;;14.20;77.10;;;;;;5080017;28;20017;-79
2022/05/07 05:48:36;;;;;;;45.53;27.05;;;14.60;46.30;;;;;;5080226;28;20103;-80
2022/05/07 05:51:04;;;;;;;47.53;27.77;;;14.90;19.20;;;;;;5061062;28;20084;-80
2022/05/07 05:53:31;;;;;;;47.47;28.95;;;15.30;1.00;;;;;;5082940;28;20729;-79
2022/05/07 05:55:58;;;;;;;50.33;31.10;;;15.60;1.00;;;;;;5081193;28;20112;-79
2022/05/07 05:58:23;;;;;;;48.40;27.63;;;16.30;1.00;;;;;;5079089;28;20025;-79
2022/05/07 06:00:52;;;;;;;48.78;28.60;;;16.90;1.00;;;;;;5078546;28;20062;-79
2022/05/07 06:03:19;;;;;;;59.35;30.75;;;17.10;1.00;;;;;;5078365;28;20094;-79
2022/05/07 06:05:44;;;;;;;51.65;28.92;;;17.80;1.00;;;;;;5078407;28;20112;-79
2022/05/07 06:08:12;;;;;;;47.85;28.70;;;18.30;99.90;;;;;;5078208;28;20056;-79
2022/05/07 06:10:37;;;;;;;49.15;30.88;;;18.30;99.90;;;;;;5077183;28;20020;-78
2022/05/07 06:13:03;;;;;;;49.15;31.95;;;17.90;1.00;;;;;;5074630;28;20698;-79
2022/05/07 06:15:29;;;;;;;51.45;33.22;;;18.10;99.90;;;;;;5068526;28;20027;-78
2022/05/07 06:17:54;;;;;;;54.33;30.23;;;18.80;99.90;;;;;;5056305;28;20032;-78
2022/05/07 06:20:20;;;;;;;58.97;33.15;;;18.60;99.90;;;;;;5056272;28;20047;-78
2022/05/07 06:22:45;;;;;;;50.97;32.92;;;19.10;99.90;;;;;;5056443;28;20022;-79
2022/05/07 06:28:15;;;;;;;55.63;31.67;;;19.80;99.90;;;;;;4975459;28;20065;-79
2022/05/07 06:30:41;;;;;;;51.05;34.28;;;18.40;99.90;;;;;;4991803;28;20497;-78
2022/05/07 06:33:06;;;;;;;50.50;34.22;;;17.90;99.90;;;;;;5023268;28;20037;-79
2022/05/07 06:35:33;;;;;;;52.00;33.65;;;16.90;1.00;;;;;;5055959;28;20021;-79
2022/05/07 06:37:58;;;;;;;52.28;31.67;;;16.30;1.00;;;;;;5056004;28;20499;-78
2022/05/07 06:43:46;;;;;;;50.17;31.80;;;16.30;1.00;;;;;;5056091;28;20036;-78
2022/05/07 06:47:06;;;;;;;52.92;34.40;;;16.20;1.00;;;;;;5055880;28;20025;-78
2022/05/07 06:49:32;;;;;;;54.22;32.90;;;16.20;1.00;;;;;;5056258;28;20021;-79
2022/05/07 06:51:57;;;;;;;49.50;31.13;;;16.20;1.00;;;;;;5056276;28;20033;-79
2022/05/07 06:54:23;;;;;;;49.67;33.15;;;16.00;1.00;;;;;;5056634;28;20024;-80
2022/05/07 06:56:49;;;;;;;47.97;31.10;;;16.20;1.00;;;;;;5076023;28;20029;-80
2022/05/07 06:59:15;;;;;;;49.20;29.42;;;16.20;1.00;;;;;;5056518;28;20013;-81
2022/05/07 07:01:41;;;;;;;50.40;32.83;;;16.20;1.00;;;;;;5054414;28;20079;-81
2022/05/07 07:04:06;;;;;;;48.78;29.08;;;16.20;1.00;;;;;;5037632;28;20052;-81
2022/05/07 07:06:32;;;;;;;49.95;32.00;;;16.00;1.00;;;;;;5063075;28;20025;-81
2022/05/07 07:08:57;;;;;;;48.60;31.60;;;15.90;1.00;;;;;;5075716;28;20051;-81
2022/05/07 07:11:24;;;;;;;43.97;28.75;;;16.00;1.00;;;;;;5075549;28;20032;-81
2022/05/07 07:13:51;;;;;;;51.25;35.47;;;16.40;1.00;;;;;;5075949;28;20021;-81
2022/05/07 07:16:17;;;;;;;49.10;30.95;;;16.10;1.00;;;;;;5075326;28;20100;-81
2022/05/07 07:18:43;;;;;;;46.22;32.35;;;16.30;1.00;;;;;;5075377;28;20048;-81
2022/05/07 07:21:08;;;;;;;52.35;31.98;;;16.50;1.00;;;;;;5075397;28;20049;-81
2022/05/07 07:23:34;;;;;;;50.83;32.08;;;16.70;1.00;;;;;;5075068;28;20505;-81
2022/05/07 07:25:59;;;;;;;51.03;34.30;;;17.00;99.90;;;;;;5074831;28;20029;-81
2022/05/07 07:28:25;;;;;;;48.80;33.47;;;17.50;99.90;;;;;;5075184;28;20119;-81
2022/05/07 07:30:51;;;;;;;51.08;33.97;;;17.80;99.90;;;;;;5075203;28;20024;-81
2022/05/07 07:33:17;;;;;;;52.03;33.20;;;18.30;99.90;;;;;;5075077;28;20097;-81
2022/05/07 07:35:43;;;;;;;49.70;33.28;;;18.60;99.90;;;;;;5076549;28;20066;-82
2022/05/07 07:38:09;;;;;;;46.97;30.52;;;18.60;99.90;;;;;;5079546;28;20016;-81
2022/05/07 07:40:35;;;;;;;53.30;33.72;;;19.40;99.90;;;;;;5081542;28;20024;-81
2022/05/07 07:43:01;;;;;;;46.88;29.85;;;19.60;99.90;;;;;;5083614;28;20044;-81
2022/05/07 07:48:11;;;;;;;46.45;31.08;;;21.00;99.90;;;;;;5075144;28;20032;-81
2022/05/07 07:50:38;;;;;;;49.50;30.50;;;21.20;99.90;;;;;;5074728;28;20024;-81
2022/05/07 07:53:08;;;;;;;43.55;28.65;;;20.80;99.90;;;;;;5075434;28;20500;-81
2022/05/07 07:55:37;;;;;;;47.35;31.05;;;20.10;99.90;;;;;;5074920;28;20017;-81
2022/05/07 07:58:05;;;;;;;50.17;28.70;;;20.00;99.90;;;;;;5075228;28;20104;-81
2022/05/07 08:00:31;;;;;;;43.03;26.50;;;20.20;99.90;;;;;;5074796;28;20024;-81
2022/05/07 08:02:59;;;;;;;43.20;27.13;;;20.20;99.90;;;;;;5075054;28;20481;-81
2022/05/07 08:05:33;;;;;;;47.40;31.48;;;20.20;99.90;;;;;;5092052;28;20029;-80
2022/05/07 08:13:35;;;;;;;43.25;27.65;;;20.90;99.90;;;;;;5097866;28;20062;-83
2022/05/07 08:16:02;;;;;;;46.65;28.45;;;21.40;99.90;;;;;;5072179;28;20502;-80
2022/05/07 08:18:28;;;;;;;45.88;28.85;;;21.80;99.90;;;;;;5072575;28;20142;-79
2022/05/07 08:20:55;;;;;;;43.40;26.70;;;22.10;99.90;;;;;;5073393;28;20486;-79
2022/05/07 08:23:20;;;;;;;46.47;27.63;;;22.50;99.90;;;;;;5073422;28;20020;-79
2022/05/07 08:25:46;;;;;;;52.80;28.60;;;22.70;99.90;;;;;;5073629;28;20360;-79
2022/05/07 08:28:11;;;;;;;41.22;24.05;;;23.00;99.90;;;;;;5072744;28;20112;-79
2022/05/07 08:30:37;;;;;;;43.03;24.77;;;23.60;99.90;;;;;;5072701;28;20027;-79
2022/05/07 08:33:04;;;;;;;40.10;24.10;;;23.70;99.90;;;;;;5072842;28;20127;-79
2022/05/07 08:35:30;;;;;;;37.92;22.00;;;23.80;99.90;;;;;;5071338;28;20024;-82
2022/05/07 08:37:55;;;;;;;43.10;21.70;;;23.40;99.90;;;;;;5071862;28;20485;-82
2022/05/07 08:40:22;;;;;;;34.78;21.45;;;23.20;99.90;;;;;;5071409;28;20063;-82
2022/05/07 08:42:48;;;;;;;37.75;23.75;;;23.20;99.90;;;;;;5058823;28;20032;-81
2022/05/07 08:45:14;;;;;;;39.55;26.25;;;23.40;99.90;;;;;;5064785;28;20032;-81
2022/05/07 08:47:43;;;;;;;38.35;22.50;;;25.50;99.90;;;;;;5071076;28;20029;-81
2022/05/07 08:50:11;;;;;;;38.65;24.65;;;23.80;99.90;;;;;;5071109;28;20021;-81
2022/05/07 08:52:40;;;;;;;39.85;25.95;;;23.10;99.90;;;;;;5071591;28;20025;-81
2022/05/07 08:55:06;;;;;;;34.85;22.23;;;22.80;99.90;;;;;;5072890;28;20051;-81
2022/05/07 08:57:31;;;;;;;33.38;21.42;;;22.50;99.90;;;;;;5073871;28;20055;-81
2022/05/07 08:59:58;;;;;;;25.75;13.65;;;22.10;99.90;;;;;;5073879;28;20025;-81
2022/05/07 09:02:23;;;;;;;24.48;15.48;;;20.70;99.90;;;;;;5055774;28;20020;-80
2022/05/07 09:04:58;;;;;;;25.70;15.75;;;20.50;99.90;;;;;;5073669;28;20127;-80
2022/05/07 09:07:24;;;;;;;25.88;14.85;;;20.40;99.90;;;;;;5073851;28;20451;-80
2022/05/07 09:09:51;;;;;;;26.48;14.60;;;20.20;99.90;;;;;;5073790;28;20039;-81
2022/05/07 09:12:28;;;;;;;25.30;14.45;;;19.70;99.90;;;;;;5074112;28;20020;-81
2022/05/07 09:14:59;;;;;;;23.38;15.35;;;19.10;99.90;;;;;;5056222;28;20036;-81
2022/05/07 09:17:25;;;;;;;30.02;19.67;;;19.10;99.90;;;;;;5073895;28;20069;-80
2022/05/07 09:19:51;;;;;;;33.60;19.38;;;19.80;99.90;;;;;;5073756;28;20029;-80
2022/05/07 09:22:17;;;;;;;27.02;16.75;;;19.90;99.90;;;;;;5074244;28;20020;-80
2022/05/07 09:24:55;;;;;;;29.90;15.95;;;19.50;99.90;;;;;;5077230;28;20031;-81
2022/05/07 09:27:24;;;;;;;33.22;16.58;;;19.60;99.90;;;;;;5077541;28;20028;-80
2022/05/07 09:30:02;;;;;;;27.35;16.75;;;19.80;99.90;;;;;;5077545;28;20405;-82
2022/05/07 09:32:37;;;;;;;30.77;15.48;;;20.20;99.90;;;;;;5077588;28;20371;-82
2022/05/07 09:38:01;;;;;;;30.00;19.17;;;20.20;99.90;;;;;;5076145;28;20035;-81
2022/05/07 09:40:27;;;;;;;22.73;13.13;;;20.60;99.90;;;;;;5059063;28;20467;-80
2022/05/07 09:43:02;;;;;;;23.90;12.10;;;19.80;99.90;;;;;;5077274;28;20495;-80
2022/05/07 09:45:28;;;;;;;30.98;14.75;;;20.20;99.90;;;;;;5076284;28;20017;-80
2022/05/07 09:48:00;;;;;;;28.73;15.73;;;21.20;99.90;;;;;;5072689;28;20074;-81
2022/05/07 09:58:36;;;;;;;26.30;14.05;;;19.10;99.90;;;;;;5076955;28;20497;-81
2022/05/07 10:01:15;;;;;;;28.70;16.63;;;18.70;99.90;;;;;;5075688;28;20096;-81
2022/05/07 10:04:06;;;;;;;36.80;20.75;;;18.60;99.90;;;;;;5071031;28;20155;-81
2022/05/07 10:07:00;;;;;;;28.25;14.80;;;19.40;99.90;;;;;;5071386;28;20016;-81
2022/05/07 10:09:45;;;;;;;35.38;19.35;;;19.90;99.90;;;;;;5072617;28;20115;-81
2022/05/07 10:12:18;;;;;;;31.15;16.30;;;20.00;99.90;;;;;;5071730;28;20074;-81
2022/05/07 10:14:43;;;;;;;34.53;17.85;;;20.70;99.90;;;;;;5070686;28;20116;-81
2022/05/07 10:17:11;;;;;;;31.42;15.23;;;20.20;99.90;;;;;;5072907;28;20084;-81
2022/05/07 10:19:49;;;;;;;26.08;13.45;;;19.80;99.90;;;;;;5074022;28;20067;-80
2022/05/07 10:22:23;;;;;;;21.58;11.55;;;19.10;99.90;;;;;;5055493;28;20521;-81
2022/05/07 10:25:04;;;;;;;22.73;11.40;;;18.90;99.90;;;;;;5075247;28;20094;-82
2022/05/07 10:27:33;;;;;;;;;;;19.20;99.90;;;;;;5074121;28;20024;-81
2022/05/07 10:30:17;;;;;;;25.13;13.25;;;18.50;99.90;;;;;;5072887;28;19908;-81
2022/05/07 10:32:56;;;;;;;15.88;10.73;;;18.60;99.90;;;;;;5074167;28;20025;-82
2022/05/07 10:35:41;;;;;;;18.30;9.57;;;21.20;99.90;;;;;;5070191;28;20483;-81
2022/05/07 10:38:26;;;;;;;20.42;10.40;;;23.00;99.90;;;;;;5073901;28;20379;-81
2022/05/07 10:40:58;;;;;;;20.30;12.63;;;22.60;99.90;;;;;;5073561;28;20032;-82
2022/05/07 10:43:38;;;;;;;18.65;11.60;;;23.60;99.90;;;;;;5073000;28;20028;-81
2022/05/07 10:46:09;;;;;;;20.25;11.30;;;24.40;99.90;;;;;;5071202;28;20173;-81
2022/05/07 10:48:46;;;;;;;15.07;8.45;;;22.00;99.90;;;;;;5073302;28;20062;-81
2022/05/07 10:51:26;;;;;;;18.33;7.80;;;22.10;99.90;;;;;;5075068;28;20017;-81
2022/05/07 10:53:53;;;;;;;16.40;9.75;;;21.00;99.90;;;;;;5075825;28;20507;-81
2022/05/07 10:56:21;;;;;;;17.52;10.55;;;20.60;99.90;;;;;;5074850;28;20102;-82
2022/05/07 10:58:49;;;;;;;15.65;9.93;;;21.20;99.90;;;;;;5079314;28;20385;-82
2022/05/07 11:01:16;;;;;;;13.10;7.72;;;20.90;99.90;;;;;;5086193;28;20062;-83
2022/05/07 11:03:41;;;;;;;13.55;8.05;;;20.50;99.90;;;;;;5061657;28;20060;-81
2022/05/07 11:06:07;;;;;;;13.57;8.32;;;20.00;99.90;;;;;;5052829;28;20025;-81
2022/05/07 11:08:35;;;;;;;10.88;7.35;;;20.30;99.90;;;;;;5051628;28;20063;-81
2022/05/07 11:11:09;;;;;;;16.92;9.27;;;20.40;99.90;;;;;;5061764;28;20029;-81
2022/05/07 11:13:44;;;;;;;17.38;10.27;;;20.00;99.90;;;;;;5052629;28;20033;-81
2022/05/07 11:16:10;;;;;;;17.58;8.88;;;19.80;99.90;;;;;;5052734;28;20025;-81
2022/05/07 11:18:36;;;;;;;17.42;9.57;;;20.00;99.90;;;;;;5053362;28;20027;-80
2022/05/07 11:21:04;;;;;;;17.17;11.15;;;20.40;99.90;;;;;;5052949;28;20104;-81
2022/05/07 11:23:35;;;;;;;17.95;10.00;;;20.60;99.90;;;;;;5052804;28;20020;-81
2022/05/07 11:26:11;;;;;;;14.45;7.32;;;20.10;99.90;;;;;;5053292;28;20032;-81
2022/05/07 11:28:38;;;;;;;14.65;8.60;;;19.80;99.90;;;;;;5036266;28;20041;-81
2022/05/07 11:31:04;;;;;;;14.63;8.93;;;20.20;99.90;;;;;;5033350;28;20116;-80
2022/05/07 11:33:29;;;;;;;14.10;8.45;;;20.50;99.90;;;;;;5033135;28;20108;-80
2022/05/07 11:36:06;;;;;;;16.02;8.63;;;20.00;99.90;;;;;;5032632;28;20430;-80
2022/05/07 11:38:36;;;;;;;18.00;9.45;;;20.30;99.90;;;;;;5032839;28;20060;-81
2022/05/07 11:41:15;;;;;;;12.88;8.15;;;20.40;99.90;;;;;;5032684;28;20025;-81
2022/05/07 11:46:25;;;;;;;11.82;7.82;;;21.20;99.90;;;;;;5051869;28;20067;-82
2022/05/07 11:48:51;;;;;;;15.13;9.75;;;21.10;99.90;;;;;;5052897;28;20033;-82
2022/05/07 11:51:25;;;;;;;15.25;9.30;;;20.50;99.90;;;;;;5051255;28;20111;-81
2022/05/07 11:53:51;;;;;;;14.40;8.68;;;20.10;99.90;;;;;;5052638;28;20103;-81
2022/05/07 11:56:17;;;;;;;15.55;10.15;;;19.10;99.90;;;;;;5054823;28;20039;-81
2022/05/07 11:58:46;;;;;;;18.00;9.55;;;19.10;99.90;;;;;;5054194;28;20415;-81
2022/05/07 12:01:37;;;;;;;15.45;8.38;;;18.70;99.90;;;;;;5051858;28;20066;-81
2022/05/07 12:04:09;;;;;;;15.50;9.68;;;18.70;99.90;;;;;;5052666;28;20060;-81
2022/05/07 12:06:35;;;;;;;17.35;11.30;;;18.80;99.90;;;;;;5037652;28;20034;-82
2022/05/07 12:09:12;;;;;;;15.02;9.93;;;19.10;99.90;;;;;;5063207;28;20255;-81
2022/05/07 12:11:38;;;;;;;17.13;10.00;;;19.50;99.90;;;;;;5071849;28;20104;-80
2022/05/07 12:14:03;;;;;;;15.30;9.25;;;19.70;99.90;;;;;;5065030;28;20056;-81
2022/05/07 12:19:13;;;;;;;12.93;8.20;;;20.10;99.90;;;;;;5059762;28;20093;-81
2022/05/07 12:29:51;;;;;;;13.63;6.97;;;20.60;99.90;;;;;;5064860;28;20063;-81
2022/05/07 12:32:23;;;;;;;12.65;7.50;;;20.00;99.90;;;;;;5048374;28;20021;-80
2022/05/07 12:34:49;;;;;;;12.50;6.82;;;20.00;99.90;;;;;;5032761;28;20029;-80
2022/05/07 12:37:15;;;;;;;14.73;6.63;;;20.10;99.90;;;;;;5032427;28;20021;-80
2022/05/07 12:39:41;;;;;;;14.93;7.25;;;20.70;99.90;;;;;;5032593;28;20469;-81
2022/05/07 12:42:08;;;;;;;8.23;5.13;;;20.90;99.90;;;;;;5033323;28;20029;-81
2022/05/07 12:44:34;;;;;;;11.20;6.20;;;21.00;99.90;;;;;;5051863;28;20074;-81
2022/05/07 12:47:00;;;;;;;11.38;6.60;;;20.60;99.90;;;;;;5054576;28;20021;-82
2022/05/07 12:49:27;;;;;;;10.73;6.63;;;20.40;99.90;;;;;;5066095;28;20059;-81
2022/05/07 12:51:53;;;;;;;9.60;5.25;;;19.60;99.90;;;;;;5054701;28;20029;-81
2022/05/07 12:54:22;;;;;;;12.15;6.40;;;19.50;99.90;;;;;;5051530;28;20029;-81
2022/05/07 12:56:48;;;;;;;11.25;5.38;;;19.50;99.90;;;;;;5051628;28;20036;-80
2022/05/07 12:59:14;;;;;;;12.57;6.38;;;19.80;99.90;;;;;;5051220;28;20021;-81
2022/05/07 13:01:40;;;;;;;11.52;7.22;;;19.90;99.90;;;;;;5050638;28;20392;-81
2022/05/07 13:04:06;;;;;;;13.10;7.40;;;20.70;99.90;;;;;;5055556;28;20131;-81
2022/05/07 13:06:31;;;;;;;11.63;7.88;;;21.00;99.90;;;;;;5071462;28;20052;-81
2022/05/07 13:09:00;;;;;;;13.23;6.57;;;20.80;99.90;;;;;;5071825;28;20063;-81
2022/05/07 13:11:26;;;;;;;8.20;5.82;;;20.30;99.90;;;;;;5071403;28;20027;-81
2022/05/07 13:13:52;;;;;;;9.38;6.35;;;20.60;99.90;;;;;;5053864;28;20024;-81
2022/05/07 13:16:17;;;;;;;8.13;5.55;;;20.50;99.90;;;;;;5071300;28;20509;-81
2022/05/07 13:18:44;;;;;;;10.57;5.38;;;20.90;99.90;;;;;;5062372;28;20017;-81
2022/05/07 13:21:10;;;;;;;9.90;5.78;;;21.00;99.90;;;;;;5069116;28;20021;-81
2022/05/07 13:23:36;;;;;;;8.57;5.50;;;21.70;99.90;;;;;;5071175;28;20032;-81
2022/05/07 13:26:02;;;;;;;7.03;4.53;;;21.50;99.90;;;;;;5071409;28;20025;-81
2022/05/07 13:28:27;;;;;;;7.18;3.70;;;21.00;99.90;;;;;;5071413;28;20017;-81
2022/05/07 13:30:58;;;;;;;6.25;3.72;;;20.80;99.90;;;;;;5071198;28;20074;-81
2022/05/07 13:33:24;;;;;;;7.38;3.97;;;20.10;99.90;;;;;;5057203;28;20096;-82